createdAt,value
2023-05-25T00:02:07.237Z,60.63
2023-05-25T00:04:37.162Z,60.97
2023-05-25T00:07:06.610Z,61.05
2023-05-25T00:09:36.067Z,60.93
2023-05-25T00:12:06.065Z,61.39
2023-05-25T00:14:34.904Z,61.49
2023-05-25T00:17:10.047Z,62.53
2023-05-25T00:19:42.524Z,62.49
2023-05-25T00:22:12.259Z,63.02
2023-05-25T00:24:41.380Z,62.80
2023-05-25T00:27:12.903Z,63.08
2023-05-25T00:29:41.804Z,63.90
2023-05-25T00:32:12.310Z,63.63
2023-05-25T00:34:41.716Z,64.02
2023-05-25T00:37:10.915Z,64.50
2023-05-25T00:39:39.737Z,64.35
2023-05-25T00:42:09.750Z,64.41
2023-05-25T00:44:38.552Z,65.04
2023-05-25T00:47:07.779Z,65.23
2023-05-25T00:49:38.398Z,65.63
2023-05-25T00:52:07.858Z,65.06
2023-05-25T00:54:37.741Z,64.70
2023-05-25T00:57:09.014Z,65.35
2023-05-25T00:59:41.482Z,65.87
2023-05-25T01:02:12.010Z,64.46
2023-05-25T01:04:45.305Z,65.00
2023-05-25T01:07:18.456Z,65.41
2023-05-25T01:09:47.919Z,64.76
2023-05-25T01:12:17.374Z,64.51
2023-05-25T01:14:48.282Z,65.05
2023-05-25T01:17:20.540Z,64.73
2023-05-25T01:20:09.052Z,65.22
2023-05-25T01:22:44.549Z,65.48
2023-05-25T01:25:14.806Z,65.49
2023-05-25T01:27:58.550Z,64.48
2023-05-25T01:30:28.333Z,64.85
2023-05-25T01:32:58.278Z,65.24
2023-05-25T01:35:28.582Z,64.84
2023-05-25T01:37:59.586Z,65.99
2023-05-25T01:40:29.191Z,65.74
2023-05-25T01:42:59.578Z,66.32
2023-05-25T01:45:29.177Z,66.70
2023-05-25T01:48:02.733Z,65.46
2023-05-25T01:50:35.367Z,66.67
2023-05-25T01:53:05.839Z,65.59
2023-05-25T01:55:38.728Z,65.98
2023-05-25T01:58:09.591Z,66.22
2023-05-25T02:00:41.053Z,66.33
2023-05-25T02:03:10.933Z,66.30
2023-05-25T02:05:42.935Z,66.71
2023-05-25T02:08:12.666Z,65.54
2023-05-25T02:10:41.818Z,67.11
2023-05-25T02:13:12.131Z,66.20
2023-05-25T02:15:41.752Z,67.43
2023-05-25T02:18:11.147Z,67.28
2023-05-25T02:20:40.545Z,67.22
2023-05-25T02:23:09.405Z,67.25
2023-05-25T02:25:42.761Z,66.59
2023-05-25T02:28:13.547Z,66.46
2023-05-25T02:31:22.998Z,67.18
2023-05-25T02:33:51.835Z,67.30
2023-05-25T02:36:21.778Z,67.14
2023-05-25T02:38:52.185Z,66.87
2023-05-25T02:41:21.997Z,66.16
2023-05-25T02:43:52.241Z,67.58
2023-05-25T02:46:23.016Z,67.32
2023-05-25T02:48:52.071Z,67.61
2023-05-25T02:51:21.239Z,66.77
2023-05-25T02:53:50.819Z,66.50
2023-05-25T02:56:19.914Z,66.63
2023-05-25T02:58:48.875Z,66.12
2023-05-25T03:01:25.854Z,66.67
2023-05-25T03:03:56.959Z,67.11
2023-05-25T03:06:28.525Z,66.52
2023-05-25T03:09:06.477Z,66.51
2023-05-25T03:11:36.085Z,66.32
2023-05-25T03:14:06.561Z,66.88
2023-05-25T03:16:39.242Z,66.07
2023-05-25T03:19:10.634Z,66.63
2023-05-25T03:21:40.080Z,66.33
2023-05-25T03:24:09.269Z,66.88
2023-05-25T03:26:38.456Z,66.40
2023-05-25T03:29:08.665Z,66.53
2023-05-25T03:31:39.424Z,66.92
2023-05-25T03:34:08.495Z,66.60
2023-05-25T03:36:39.637Z,66.71
2023-05-25T03:39:10.277Z,66.83
2023-05-25T03:41:39.859Z,67.77
2023-05-25T03:44:10.875Z,67.80
2023-05-25T03:46:41.688Z,68.22
2023-05-25T03:49:14.174Z,68.73
2023-05-25T03:51:43.898Z,68.72
2023-05-25T03:54:14.558Z,69.09
2023-05-25T03:56:43.831Z,68.78
2023-05-25T03:59:13.108Z,68.40
2023-05-25T04:01:44.421Z,67.95
2023-05-25T04:04:13.546Z,68.08
2023-05-25T04:06:45.918Z,68.18
2023-05-25T04:09:15.370Z,67.59
2023-05-25T04:11:46.003Z,67.08
2023-05-25T04:14:15.067Z,67.21
2023-05-25T04:16:46.876Z,66.99
2023-05-25T04:19:17.530Z,66.36
2023-05-25T04:21:46.875Z,65.88
2023-05-25T04:24:15.895Z,66.16
2023-05-25T04:26:46.356Z,66.34
2023-05-25T04:29:15.932Z,65.24
2023-05-25T04:32:06.497Z,65.24
2023-05-25T04:34:37.943Z,65.07
2023-05-25T04:37:17.349Z,64.98
2023-05-25T04:39:47.300Z,65.73
2023-05-25T04:42:17.120Z,65.64
2023-05-25T04:44:46.471Z,65.60
2023-05-25T04:47:17.266Z,66.01
2023-05-25T04:49:46.334Z,64.90
2023-05-25T04:52:15.626Z,65.13
2023-05-25T04:54:46.922Z,65.58
2023-05-25T04:57:17.807Z,65.32
2023-05-25T04:59:46.916Z,64.73
2023-05-25T05:02:17.431Z,63.42
2023-05-25T05:04:46.417Z,63.79
2023-05-25T05:07:15.586Z,64.17
2023-05-25T05:09:45.177Z,62.50
2023-05-25T05:12:14.822Z,62.92
2023-05-25T05:14:50.323Z,63.11
2023-05-25T05:17:21.141Z,63.36
2023-05-25T05:19:50.120Z,64.23
2023-05-25T05:22:19.789Z,63.72
2023-05-25T05:24:49.075Z,64.45
2023-05-25T05:27:24.437Z,64.19
2023-05-25T05:30:01.607Z,63.89
2023-05-25T05:32:33.117Z,63.87
2023-05-25T05:35:04.999Z,63.41
2023-05-25T05:37:40.949Z,62.65
2023-05-25T05:40:10.963Z,63.05
2023-05-25T05:42:42.449Z,63.36
2023-05-25T05:45:12.568Z,63.27
2023-05-25T05:47:43.273Z,63.16
2023-05-25T05:50:12.781Z,63.06
2023-05-25T05:52:43.403Z,62.81
2023-05-25T05:55:13.496Z,63.29
2023-05-25T05:57:44.196Z,63.03
2023-05-25T06:00:13.838Z,62.79
2023-05-25T06:02:47.338Z,62.54
2023-05-25T06:05:21.973Z,62.47
2023-05-25T06:07:51.855Z,62.20
2023-05-25T06:10:22.702Z,62.17
2023-05-25T06:12:52.199Z,61.62
2023-05-25T06:15:21.115Z,61.24
2023-05-25T06:17:53.602Z,61.52
2023-05-25T06:20:23.092Z,61.34
2023-05-25T06:22:52.247Z,61.05
2023-05-25T06:25:21.421Z,61.06
2023-05-25T06:27:51.035Z,60.66
2023-05-25T06:30:20.057Z,60.05
2023-05-25T06:32:49.162Z,60.21
2023-05-25T06:35:21.020Z,59.96
2023-05-25T06:37:53.350Z,59.78
2023-05-25T06:40:22.793Z,59.73
2023-05-25T06:42:52.746Z,59.78
2023-05-25T06:45:53.959Z,59.49
2023-05-25T06:48:29.390Z,59.29
2023-05-25T06:51:01.156Z,58.92
2023-05-25T06:53:34.184Z,58.51
2023-05-25T06:56:06.058Z,58.53
2023-05-25T06:58:35.551Z,58.28
2023-05-25T07:01:06.680Z,57.47
2023-05-25T07:03:36.438Z,58.04
2023-05-25T07:06:06.896Z,58.00
2023-05-25T07:08:36.384Z,57.54
2023-05-25T07:11:05.553Z,57.36
2023-05-25T07:13:37.008Z,56.65
2023-05-25T07:16:06.083Z,56.49
2023-05-25T07:18:35.168Z,55.82
2023-05-25T07:21:04.059Z,55.91
2023-05-25T07:23:34.560Z,55.54
2023-05-25T07:26:05.688Z,55.77
2023-05-25T07:28:35.390Z,55.39
2023-05-25T07:31:04.260Z,55.21
2023-05-25T07:33:33.514Z,55.60
2023-05-25T07:36:02.364Z,55.38
2023-05-25T07:38:31.588Z,55.15
2023-05-25T07:41:01.818Z,54.21
2023-05-25T07:43:31.676Z,54.26
2023-05-25T07:46:01.339Z,54.47
2023-05-25T07:48:30.512Z,53.50
2023-05-25T07:50:59.465Z,53.08
2023-05-25T07:53:28.634Z,53.58
2023-05-25T07:55:57.581Z,52.80
2023-05-25T07:58:28.245Z,53.12
2023-05-25T08:00:57.375Z,53.33
2023-05-25T08:03:39.888Z,53.30
2023-05-25T08:06:15.518Z,52.68
2023-05-25T08:08:45.090Z,52.60
2023-05-25T08:11:14.222Z,52.33
2023-05-25T08:13:44.783Z,52.71
2023-05-25T08:16:13.792Z,52.99
2023-05-25T08:18:46.663Z,52.21
2023-05-25T08:21:16.692Z,51.99
2023-05-25T08:23:46.131Z,51.70
2023-05-25T08:26:31.735Z,51.11
2023-05-25T08:29:05.993Z,51.25
2023-05-25T08:31:35.795Z,51.10
2023-05-25T08:34:05.082Z,50.88
2023-05-25T08:36:35.952Z,50.92
2023-05-25T08:39:05.851Z,50.51
2023-05-25T08:41:36.021Z,49.79
2023-05-25T08:44:08.850Z,50.30
2023-05-25T08:46:37.735Z,50.57
2023-05-25T08:49:10.208Z,49.50
2023-05-25T08:51:40.026Z,48.92
2023-05-25T08:54:10.412Z,49.48
2023-05-25T08:56:43.050Z,49.53
2023-05-25T08:59:18.721Z,49.01
2023-05-25T09:01:48.000Z,49.08
2023-05-25T09:04:19.682Z,49.13
2023-05-25T09:07:05.695Z,48.58
2023-05-25T09:09:39.650Z,48.98
2023-05-25T09:12:09.609Z,49.07
2023-05-25T09:14:45.674Z,48.22
2023-05-25T09:17:15.189Z,49.19
2023-05-25T09:19:44.521Z,49.08
2023-05-25T09:22:16.935Z,49.00
2023-05-25T09:24:46.931Z,48.60
2023-05-25T09:27:18.619Z,48.76
2023-05-25T09:29:50.489Z,48.99
2023-05-25T09:32:20.386Z,48.87
2023-05-25T09:34:49.613Z,48.53
2023-05-25T09:37:20.215Z,47.50
2023-05-25T09:39:49.636Z,48.09
2023-05-25T09:42:21.543Z,47.85
2023-05-25T09:44:52.168Z,47.78
2023-05-25T09:47:21.314Z,47.67
2023-05-25T09:49:50.687Z,47.05
2023-05-25T09:52:19.834Z,47.73
2023-05-25T09:54:49.363Z,47.59
2023-05-25T09:57:19.573Z,47.54
2023-05-25T09:59:48.857Z,47.27
2023-05-25T10:02:19.099Z,47.38
2023-05-25T10:04:48.669Z,47.82
2023-05-25T10:07:17.878Z,47.76
2023-05-25T10:09:47.251Z,47.62
2023-05-25T10:12:18.902Z,47.43
2023-05-25T10:14:51.332Z,47.51
2023-05-25T10:17:24.261Z,47.50
2023-05-25T10:19:56.350Z,47.61
2023-05-25T10:22:28.771Z,47.55
2023-05-25T10:25:00.858Z,47.05
2023-05-25T10:27:32.937Z,46.85
2023-05-25T10:30:02.974Z,46.95
2023-05-25T10:32:34.065Z,47.11
2023-05-25T10:35:04.516Z,47.18
2023-05-25T10:37:34.510Z,46.87
2023-05-25T10:40:04.395Z,46.33
2023-05-25T10:42:37.050Z,46.79
2023-05-25T10:45:07.367Z,46.99
2023-05-25T10:47:38.886Z,47.15
2023-05-25T10:50:08.888Z,47.07
2023-05-25T10:52:37.703Z,47.25
2023-05-25T10:55:07.423Z,46.75
2023-05-25T10:57:36.500Z,46.63
2023-05-25T11:00:08.724Z,46.90
2023-05-25T11:02:53.671Z,46.38
2023-05-25T11:05:34.257Z,45.49
2023-05-25T11:08:05.091Z,46.12
2023-05-25T11:10:44.939Z,46.53
2023-05-25T11:13:25.286Z,46.49
2023-05-25T11:16:20.175Z,46.99
2023-05-25T11:18:54.766Z,46.50
2023-05-25T11:21:25.529Z,46.32
2023-05-25T11:23:55.259Z,46.18
2023-05-25T11:26:25.393Z,46.24
2023-05-25T11:28:54.690Z,46.67
2023-05-25T11:31:31.950Z,46.21
2023-05-25T11:34:04.831Z,45.81
2023-05-25T11:36:35.898Z,46.19
2023-05-25T11:39:11.728Z,45.90
2023-05-25T11:41:51.473Z,45.64
2023-05-25T11:44:27.455Z,45.83
2023-05-25T11:46:58.229Z,46.07
2023-05-25T11:49:29.945Z,46.07
2023-05-25T11:51:59.498Z,45.79
2023-05-25T11:54:29.568Z,45.25
2023-05-25T11:57:00.162Z,44.97
2023-05-25T11:59:32.358Z,45.48
2023-05-25T12:02:03.308Z,44.47
2023-05-25T12:04:35.299Z,44.63
2023-05-25T12:07:05.075Z,44.79
2023-05-25T12:09:34.320Z,45.20
2023-05-25T12:12:04.899Z,44.38
2023-05-25T12:14:36.276Z,44.63
2023-05-25T12:17:07.465Z,44.40
2023-05-25T12:19:37.928Z,45.01
2023-05-25T12:22:07.660Z,45.17
2023-05-25T12:24:36.578Z,45.04
2023-05-25T12:27:06.869Z,45.32
2023-05-25T12:29:46.587Z,45.00
2023-05-25T12:32:16.222Z,45.11
2023-05-25T12:34:46.682Z,45.05
2023-05-25T12:37:20.734Z,45.47
2023-05-25T12:39:51.515Z,45.17
2023-05-25T12:42:20.940Z,45.17
2023-05-25T12:44:55.532Z,45.13
2023-05-25T12:47:25.451Z,45.11
2023-05-25T12:50:11.169Z,44.65
2023-05-25T12:52:41.042Z,45.26
2023-05-25T12:55:25.788Z,45.07
2023-05-25T12:57:55.346Z,45.27
2023-05-25T13:00:25.602Z,45.66
2023-05-25T13:02:55.095Z,45.84
2023-05-25T13:05:26.517Z,45.92
2023-05-25T13:07:56.457Z,46.36
2023-05-25T13:10:28.285Z,46.44
2023-05-25T13:12:58.677Z,46.67
2023-05-25T13:15:28.178Z,46.86
2023-05-25T13:17:58.741Z,47.02
2023-05-25T13:20:30.243Z,46.98
2023-05-25T13:22:59.844Z,47.10
2023-05-25T13:25:28.762Z,47.01
2023-05-25T13:28:00.294Z,47.41
2023-05-25T13:30:29.212Z,46.65
2023-05-25T13:32:58.363Z,46.57
2023-05-25T13:35:42.111Z,47.05
2023-05-25T13:38:11.719Z,47.16
2023-05-25T13:40:40.744Z,46.51
2023-05-25T13:43:09.837Z,46.27
2023-05-25T13:45:39.833Z,46.05
2023-05-25T13:48:09.061Z,45.86
2023-05-25T13:50:39.556Z,44.85
2023-05-25T13:53:08.507Z,44.62
2023-05-25T13:55:38.690Z,45.38
2023-05-25T13:58:07.914Z,45.42
2023-05-25T14:00:37.559Z,45.49
2023-05-25T14:03:06.555Z,45.51
2023-05-25T14:05:35.965Z,43.63
2023-05-25T14:08:06.921Z,44.71
2023-05-25T14:10:36.363Z,44.79
2023-05-25T14:13:05.166Z,44.17
2023-05-25T14:15:34.375Z,43.30
2023-05-25T14:18:03.199Z,43.17
2023-05-25T14:20:36.032Z,43.32
2023-05-25T14:23:06.416Z,41.81
2023-05-25T14:25:35.552Z,41.44
2023-05-25T14:28:04.757Z,41.79
2023-05-25T14:30:35.694Z,41.38
2023-05-25T14:33:04.663Z,41.64
2023-05-25T14:35:33.790Z,41.33
2023-05-25T14:38:02.641Z,41.61
2023-05-25T14:40:33.191Z,40.94
2023-05-25T14:43:02.181Z,40.97
2023-05-25T14:45:31.362Z,39.49
2023-05-25T14:48:15.276Z,40.19
2023-05-25T14:50:46.500Z,38.73
2023-05-25T14:53:16.013Z,39.32
2023-05-25T14:55:46.678Z,39.36
2023-05-25T14:58:15.688Z,39.20
2023-05-25T15:00:44.904Z,38.05
2023-05-25T15:03:13.951Z,37.90
2023-05-25T15:05:43.374Z,37.71
2023-05-25T15:08:12.346Z,36.94
2023-05-25T15:10:41.432Z,36.69
2023-05-25T15:13:13.304Z,35.89
2023-05-25T15:15:43.135Z,36.54
2023-05-25T15:18:12.465Z,36.28
2023-05-25T15:20:41.833Z,35.64
2023-05-25T15:23:10.864Z,35.60
2023-05-25T15:25:39.992Z,34.62
2023-05-25T15:28:08.836Z,34.94
2023-05-25T15:30:39.297Z,34.60
2023-05-25T15:33:08.247Z,34.41
2023-05-25T15:35:37.506Z,35.41
2023-05-25T15:38:06.460Z,35.72
2023-05-25T15:40:37.103Z,36.54
2023-05-25T15:43:06.032Z,36.56
2023-05-25T15:45:35.124Z,37.19
2023-05-25T15:48:09.234Z,37.29
2023-05-25T15:50:39.696Z,37.52
2023-05-25T15:53:08.877Z,36.54
2023-05-25T15:55:40.004Z,36.82
2023-05-25T15:58:09.030Z,35.82
2023-05-25T16:00:38.155Z,36.02
2023-05-25T16:03:08.666Z,35.73
2023-05-25T16:05:37.937Z,35.45
2023-05-25T16:08:06.913Z,35.86
2023-05-25T16:10:37.880Z,35.30
2023-05-25T16:13:06.666Z,35.33
2023-05-25T16:15:35.856Z,34.75
2023-05-25T16:18:05.373Z,34.91
2023-05-25T16:20:36.553Z,34.47
2023-05-25T16:23:05.517Z,34.00
2023-05-25T16:25:34.643Z,35.08
2023-05-25T16:28:03.595Z,33.63
2023-05-25T16:30:32.675Z,32.58
2023-05-25T16:33:01.972Z,33.64
2023-05-25T16:35:31.152Z,32.26
2023-05-25T16:38:01.351Z,33.16
2023-05-25T16:40:31.646Z,32.57
2023-05-25T16:43:00.891Z,32.82
2023-05-25T16:45:30.194Z,33.53
2023-05-25T16:47:59.009Z,33.50
2023-05-25T16:50:28.279Z,33.62
2023-05-25T16:52:57.254Z,33.61
2023-05-25T16:55:29.851Z,34.07
2023-05-25T16:57:58.865Z,34.52
2023-05-25T17:00:28.091Z,35.14
2023-05-25T17:02:57.258Z,35.33
2023-05-25T17:05:26.644Z,35.66
2023-05-25T17:07:55.564Z,35.97
2023-05-25T17:10:24.747Z,36.34
2023-05-25T17:12:55.310Z,36.89
2023-05-25T17:15:24.872Z,37.14
2023-05-25T17:17:53.941Z,37.22
2023-05-25T17:20:23.291Z,37.72
2023-05-25T17:22:53.085Z,38.15
2023-05-25T17:25:22.767Z,38.51
2023-05-25T17:27:51.655Z,38.77
2023-05-25T17:30:22.146Z,39.04
2023-05-25T17:32:51.571Z,39.21
2023-05-25T17:35:20.725Z,39.57
2023-05-25T17:37:49.613Z,39.45
2023-05-25T17:40:18.874Z,39.54
2023-05-25T17:42:48.011Z,39.76
2023-05-25T17:45:17.353Z,39.67
2023-05-25T17:47:47.691Z,39.71
2023-05-25T17:50:17.052Z,40.04
2023-05-25T17:52:47.879Z,40.04
2023-05-25T17:55:17.036Z,40.07
2023-05-25T17:57:46.153Z,40.29
2023-05-25T18:00:15.942Z,40.38
2023-05-25T18:02:47.663Z,40.39
2023-05-25T18:05:17.279Z,40.91
2023-05-25T18:07:46.823Z,40.92
2023-05-25T18:10:16.347Z,40.76
2023-05-25T18:12:46.288Z,40.51
2023-05-25T18:15:15.959Z,40.69
2023-05-25T18:17:45.160Z,40.83
2023-05-25T18:20:17.431Z,41.28
2023-05-25T18:22:46.613Z,40.98
2023-05-25T18:25:15.776Z,41.51
2023-05-25T18:27:44.809Z,41.09
2023-05-25T18:30:14.511Z,41.22
2023-05-25T18:32:43.685Z,41.15
2023-05-25T18:35:13.235Z,41.29
2023-05-25T18:37:44.200Z,41.09
2023-05-25T18:40:13.785Z,40.63
2023-05-25T18:42:42.897Z,40.83
2023-05-25T18:45:12.305Z,40.54
2023-05-25T18:47:41.507Z,40.58
2023-05-25T18:50:11.928Z,40.38
2023-05-25T18:52:41.396Z,40.56
2023-05-25T18:55:12.291Z,40.35
2023-05-25T18:57:41.505Z,40.45
2023-05-25T19:00:11.694Z,40.51
2023-05-25T19:02:41.143Z,40.60
2023-05-25T19:05:12.841Z,40.74
2023-05-25T19:07:58.518Z,40.69
2023-05-25T19:10:30.140Z,40.95
2023-05-25T19:12:59.343Z,40.74
2023-05-25T19:15:28.510Z,41.32
2023-05-25T19:17:58.317Z,41.31
2023-05-25T19:20:28.157Z,41.22
2023-05-25T19:22:57.448Z,41.75
2023-05-25T19:25:26.850Z,41.75
2023-05-25T19:27:58.714Z,42.30
2023-05-25T19:30:29.919Z,42.55
2023-05-25T19:32:59.711Z,42.73
2023-05-25T19:35:29.105Z,42.84
2023-05-25T19:37:59.766Z,42.85
2023-05-25T19:40:30.088Z,43.12
2023-05-25T19:43:01.448Z,43.21
2023-05-25T19:45:31.119Z,43.26
2023-05-25T19:48:01.677Z,42.91
2023-05-25T19:50:31.774Z,42.92
2023-05-25T19:53:01.202Z,43.99
2023-05-25T19:55:31.053Z,44.28
2023-05-25T19:58:01.580Z,44.92
2023-05-25T20:00:30.844Z,45.06
2023-05-25T20:03:00.758Z,46.79
2023-05-25T20:05:30.805Z,45.47
2023-05-25T20:08:01.320Z,47.18
2023-05-25T20:10:32.852Z,46.89
2023-05-25T20:13:03.756Z,46.01
2023-05-25T20:15:33.380Z,46.87
2023-05-25T20:18:03.185Z,46.71
2023-05-25T20:20:32.591Z,47.54
2023-05-25T20:23:02.068Z,47.13
2023-05-25T20:25:32.091Z,47.61
2023-05-25T20:28:01.132Z,48.32
2023-05-25T20:30:32.464Z,47.21
2023-05-25T20:33:01.657Z,48.02
2023-05-25T20:35:31.172Z,49.20
2023-05-25T20:38:00.420Z,48.55
2023-05-25T20:40:32.159Z,47.92
2023-05-25T20:43:01.810Z,48.30
2023-05-25T20:45:33.617Z,47.82
2023-05-25T20:48:05.716Z,48.96
2023-05-25T20:50:36.132Z,49.62
2023-05-25T20:53:05.269Z,50.09
2023-05-25T20:55:35.501Z,51.86
2023-05-25T20:58:04.364Z,51.25
2023-05-25T21:00:35.294Z,50.22
2023-05-25T21:03:04.985Z,52.05
2023-05-25T21:05:34.434Z,53.11
2023-05-25T21:08:04.125Z,52.24
2023-05-25T21:10:33.603Z,52.54
2023-05-25T21:13:02.440Z,52.56
2023-05-25T21:15:31.770Z,53.21
2023-05-25T21:18:03.643Z,53.53
2023-05-25T21:20:33.077Z,54.01
2023-05-25T21:23:02.652Z,54.57
2023-05-25T21:25:32.955Z,55.48
2023-05-25T21:28:01.896Z,54.84
2023-05-25T21:30:31.211Z,55.30
2023-05-25T21:33:00.485Z,55.88
2023-05-25T21:35:31.681Z,54.63
2023-05-25T21:38:00.590Z,54.11
2023-05-25T21:40:29.762Z,53.92
2023-05-25T21:42:58.712Z,54.79
2023-05-25T21:45:27.813Z,54.37
2023-05-25T21:47:56.948Z,55.84
2023-05-25T21:50:28.370Z,54.27
2023-05-25T21:52:58.830Z,55.52
2023-05-25T21:55:27.995Z,56.34
2023-05-25T21:57:56.781Z,55.12
2023-05-25T22:00:26.284Z,56.70
2023-05-25T22:02:55.302Z,55.12
2023-05-25T22:05:24.728Z,55.77
2023-05-25T22:07:55.662Z,56.47
2023-05-25T22:10:26.468Z,56.56
2023-05-25T22:12:56.313Z,57.15
2023-05-25T22:15:26.167Z,57.30
2023-05-25T22:17:56.043Z,57.12
2023-05-25T22:20:25.429Z,57.47
2023-05-25T22:22:54.551Z,57.83
2023-05-25T22:25:23.727Z,58.18
2023-05-25T22:27:53.936Z,58.34
2023-05-25T22:30:23.048Z,58.25
2023-05-25T22:32:52.048Z,58.31
2023-05-25T22:35:21.247Z,57.90
2023-05-25T22:37:50.209Z,58.17
2023-05-25T22:40:19.464Z,58.45
2023-05-25T22:42:50.286Z,59.03
2023-05-25T22:45:21.460Z,58.38
2023-05-25T22:47:50.482Z,58.60
2023-05-25T22:50:19.614Z,58.42
2023-05-25T22:52:48.649Z,57.41
2023-05-25T22:55:17.750Z,58.91
2023-05-25T22:57:46.728Z,57.81
2023-05-25T23:00:15.949Z,58.43
2023-05-25T23:02:46.411Z,58.09
2023-05-25T23:05:15.666Z,59.27
2023-05-25T23:07:45.719Z,59.42
2023-05-25T23:10:14.870Z,58.90
2023-05-25T23:12:43.726Z,59.45
2023-05-25T23:15:12.971Z,58.68
2023-05-25T23:17:41.821Z,60.14
2023-05-25T23:20:13.225Z,60.06
2023-05-25T23:22:43.235Z,59.52
2023-05-25T23:25:12.451Z,59.92
2023-05-25T23:27:41.838Z,60.47
2023-05-25T23:30:11.328Z,59.54
2023-05-25T23:32:40.291Z,59.60
2023-05-25T23:35:10.509Z,58.96
2023-05-25T23:37:41.303Z,59.93
2023-05-25T23:40:11.107Z,59.11
2023-05-25T23:42:40.611Z,59.17
2023-05-25T23:45:10.868Z,59.02
2023-05-25T23:47:39.822Z,59.92
2023-05-25T23:50:09.200Z,59.28
2023-05-25T23:52:38.144Z,58.92
2023-05-25T23:55:09.528Z,59.80
2023-05-25T23:57:38.648Z,58.62
